Time;durP1;ratioP1;P1;durP2;ratioP2;P2;SDS_P1;SDS_P2;PMS_P1;PMS_P2;Temp;Humidity;BMP_temperature;BMP_pressure;BME280_temperature;BME280_humidity;BME280_pressure;Samples;Min_cycle;Max_cycle;Signal;HPM_P1;HPM_P2
2023/03/09 00:01:18;;;;;;;8.93;4.10;;;13.00;96.70;;;;;;5054048;28;20044;-75
2023/03/09 00:03:46;;;;;;;7.57;3.72;;;13.00;96.70;;;;;;5049643;28;20040;-75
2023/03/09 00:06:14;;;;;;;8.50;3.85;;;13.00;96.70;;;;;;5050963;28;21567;-75
2023/03/09 00:08:43;;;;;;;11.23;4.10;;;13.00;96.70;;;;;;5052825;28;20048;-75
2023/03/09 00:11:11;;;;;;;7.32;3.60;;;12.90;96.70;;;;;;5051369;28;20044;-75
2023/03/09 00:13:43;;;;;;;9.18;4.35;;;12.90;96.70;;;;;;5052421;28;20087;-75
2023/03/09 00:16:15;;;;;;;9.32;3.83;;;12.90;96.70;;;;;;5055397;28;20059;-74
2023/03/09 00:18:44;;;;;;;8.43;4.13;;;12.90;96.70;;;;;;5074057;28;20484;-76
2023/03/09 00:21:34;;;;;;;12.07;3.92;;;12.90;96.70;;;;;;5054982;28;20056;-76
2023/03/09 00:24:01;;;;;;;7.95;3.88;;;12.90;96.70;;;;;;5076759;28;20380;-74
2023/03/09 00:26:30;;;;;;;8.90;3.92;;;12.90;96.70;;;;;;5082561;28;20615;-73
2023/03/09 00:29:00;;;;;;;10.60;4.35;;;12.90;96.70;;;;;;5065645;28;20539;-75
2023/03/09 00:31:30;;;;;;;9.15;4.03;;;12.90;96.70;;;;;;5083352;28;20137;-76
2023/03/09 00:33:59;;;;;;;7.35;4.07;;;12.80;96.70;;;;;;5074456;28;20036;-75
2023/03/09 00:36:29;;;;;;;7.25;3.53;;;12.80;96.70;;;;;;5075901;28;20044;-75
2023/03/09 00:38:58;;;;;;;10.57;4.07;;;12.80;96.70;;;;;;5069259;28;20093;-74
2023/03/09 00:41:30;;;;;;;7.90;3.78;;;12.80;96.70;;;;;;5055770;28;20056;-73
2023/03/09 00:44:02;;;;;;;7.93;3.97;;;12.80;96.70;;;;;;5058115;28;20422;-75
2023/03/09 00:46:34;;;;;;;9.48;4.53;;;12.70;96.70;;;;;;5078862;28;20048;-74
2023/03/09 00:49:05;;;;;;;8.77;3.92;;;12.70;96.70;;;;;;5077471;28;20047;-74
2023/03/09 00:51:36;;;;;;;8.73;3.92;;;12.70;96.70;;;;;;5070332;28;20068;-73
2023/03/09 00:54:06;;;;;;;8.32;4.38;;;12.70;96.70;;;;;;5088301;28;20044;-76
2023/03/09 00:56:35;;;;;;;9.13;3.83;;;12.70;96.70;;;;;;5084728;28;20425;-76
2023/03/09 00:59:04;;;;;;;8.25;3.40;;;12.60;96.70;;;;;;5076739;28;20501;-75
2023/03/09 01:01:33;;;;;;;9.00;3.97;;;12.60;96.70;;;;;;5072432;28;20223;-75
2023/03/09 01:04:01;;;;;;;11.27;4.32;;;12.60;96.70;;;;;;5071299;28;20131;-74
2023/03/09 01:06:30;;;;;;;6.70;3.67;;;12.50;96.70;;;;;;5083431;28;20054;-76
2023/03/09 01:08:58;;;;;;;7.35;2.97;;;12.40;96.70;;;;;;5075851;28;20051;-75
2023/03/09 01:11:26;;;;;;;7.45;3.60;;;12.40;96.70;;;;;;5084681;28;20075;-74
2023/03/09 01:13:55;;;;;;;8.80;3.60;;;12.40;96.70;;;;;;5060892;28;20456;-75
2023/03/09 01:16:24;;;;;;;6.95;3.53;;;12.40;96.70;;;;;;5077493;28;20734;-74
2023/03/09 01:18:53;;;;;;;10.60;3.58;;;12.40;96.70;;;;;;5076992;28;20463;-76
2023/03/09 01:21:21;;;;;;;8.30;3.97;;;12.40;96.70;;;;;;5077799;28;20079;-76
2023/03/09 01:23:49;;;;;;;9.98;4.15;;;12.40;96.70;;;;;;5071297;28;20524;-74
2023/03/09 01:26:18;;;;;;;7.40;3.63;;;12.40;96.70;;;;;;5070905;28;20123;-74
2023/03/09 01:28:47;;;;;;;9.35;3.60;;;12.30;96.70;;;;;;5056185;28;20045;-74
2023/03/09 01:31:15;;;;;;;7.47;3.45;;;12.30;96.70;;;;;;5054532;28;20063;-75
2023/03/09 01:33:47;;;;;;;7.40;3.30;;;12.20;96.70;;;;;;5044988;28;20050;-74
2023/03/09 01:36:17;;;;;;;10.05;3.72;;;12.20;96.70;;;;;;5059310;28;20084;-74
2023/03/09 01:38:46;;;;;;;10.85;3.83;;;12.20;96.70;;;;;;5049327;28;20041;-75
2023/03/09 01:41:16;;;;;;;9.35;3.88;;;12.10;96.70;;;;;;5057565;28;20069;-74
2023/03/09 01:43:46;;;;;;;6.90;3.65;;;12.10;96.70;;;;;;5064433;28;20139;-74
2023/03/09 01:46:44;;;;;;;7.18;2.80;;;12.20;96.70;;;;;;5060882;28;20049;-74
2023/03/09 01:49:27;;;;;;;;;;;12.10;96.70;;;;;;5058070;28;20083;-74
2023/03/09 01:52:04;;;;;;;10.63;3.70;;;12.10;96.70;;;;;;5061568;28;20437;-73
2023/03/09 01:54:37;;;;;;;8.13;3.30;;;12.10;96.70;;;;;;5064096;28;20036;-74
2023/03/09 01:57:10;;;;;;;10.73;3.95;;;12.10;96.70;;;;;;5054753;28;20060;-74
2023/03/09 01:59:39;;;;;;;9.70;3.75;;;12.10;96.70;;;;;;5058728;28;20040;-74
2023/03/09 02:02:10;;;;;;;7.85;3.47;;;12.10;96.70;;;;;;5055863;28;20086;-74
2023/03/09 02:04:43;;;;;;;8.75;3.20;;;12.10;96.70;;;;;;5060311;28;20060;-73
2023/03/09 02:07:13;;;;;;;9.50;3.63;;;12.10;96.70;;;;;;5058271;28;20103;-74
2023/03/09 02:09:46;;;;;;;6.80;3.08;;;12.10;96.70;;;;;;5055699;28;20741;-73
2023/03/09 02:12:18;;;;;;;7.85;3.22;;;12.10;96.70;;;;;;5047736;28;20102;-74
2023/03/09 02:14:46;;;;;;;7.35;3.25;;;12.00;96.70;;;;;;5061028;28;20048;-74
2023/03/09 02:17:15;;;;;;;7.90;3.33;;;12.00;96.70;;;;;;5058483;28;20045;-74
2023/03/09 02:19:57;;;;;;;8.35;3.15;;;12.00;96.70;;;;;;5043986;28;20092;-74
2023/03/09 02:22:25;;;;;;;6.18;2.72;;;12.00;96.70;;;;;;5045400;28;20063;-74
2023/03/09 02:25:02;;;;;;;5.40;2.55;;;11.90;96.70;;;;;;5058959;28;20044;-74
2023/03/09 02:27:33;;;;;;;7.95;2.80;;;11.90;96.70;;;;;;5057035;28;20040;-74
2023/03/09 02:30:02;;;;;;;7.55;2.90;;;11.90;96.70;;;;;;5064710;28;20094;-74
2023/03/09 02:32:34;;;;;;;5.20;2.55;;;11.90;96.70;;;;;;5047739;28;20040;-74
2023/03/09 02:35:04;;;;;;;7.25;2.97;;;11.90;96.70;;;;;;5060768;28;20052;-74
2023/03/09 02:37:35;;;;;;;7.78;3.20;;;11.90;96.70;;;;;;5051676;28;20045;-74
2023/03/09 02:40:13;;;;;;;7.07;2.30;;;11.90;96.70;;;;;;5061267;28;20045;-74
2023/03/09 02:42:45;;;;;;;5.53;2.42;;;11.90;96.70;;;;;;5058543;28;20059;-75
2023/03/09 02:45:17;;;;;;;7.35;2.90;;;12.00;96.70;;;;;;5053685;28;20049;-73
2023/03/09 02:47:46;;;;;;;5.78;2.35;;;12.00;96.70;;;;;;5058560;28;20130;-73
2023/03/09 02:50:16;;;;;;;8.30;3.25;;;12.00;96.70;;;;;;5058145;28;20090;-74
2023/03/09 02:52:44;;;;;;;5.90;2.67;;;12.00;96.70;;;;;;5058024;28;21042;-73
2023/03/09 02:55:14;;;;;;;6.72;3.50;;;12.00;96.70;;;;;;5052411;28;20538;-74
2023/03/09 02:57:44;;;;;;;5.50;3.08;;;12.00;96.70;;;;;;5055769;28;20664;-73
2023/03/09 03:00:16;;;;;;;5.30;2.80;;;12.00;96.70;;;;;;5054822;28;20049;-74
2023/03/09 03:02:44;;;;;;;10.57;3.08;;;12.10;96.70;;;;;;5054975;28;20401;-74
2023/03/09 03:05:12;;;;;;;8.45;3.35;;;12.10;96.70;;;;;;5055237;28;20040;-73
2023/03/09 03:07:42;;;;;;;8.80;3.20;;;12.10;96.70;;;;;;5038336;28;20048;-74
2023/03/09 03:10:10;;;;;;;6.72;2.90;;;12.00;96.70;;;;;;5057051;28;20263;-73
2023/03/09 03:12:38;;;;;;;6.78;2.90;;;12.00;96.70;;;;;;5053848;28;20040;-73
2023/03/09 03:15:09;;;;;;;9.13;3.17;;;12.00;96.70;;;;;;5059387;28;20075;-74
2023/03/09 03:17:37;;;;;;;5.03;2.67;;;12.00;96.70;;;;;;5037554;28;20052;-73
2023/03/09 03:20:13;;;;;;;8.57;3.28;;;12.00;96.70;;;;;;5041965;28;20095;-74
2023/03/09 03:22:46;;;;;;;6.00;2.85;;;12.00;96.70;;;;;;5056114;28;20137;-72
2023/03/09 03:25:17;;;;;;;5.28;2.42;;;12.00;96.70;;;;;;5055661;28;20979;-75
2023/03/09 03:27:47;;;;;;;6.32;3.13;;;12.00;96.70;;;;;;5055026;28;20410;-75
2023/03/09 03:30:18;;;;;;;7.18;3.08;;;12.00;96.70;;;;;;5054681;28;20144;-74
2023/03/09 03:32:53;;;;;;;7.55;2.95;;;12.00;96.70;;;;;;5057782;28;20048;-75
2023/03/09 03:35:26;;;;;;;6.68;3.15;;;12.00;96.70;;;;;;5054985;28;20481;-75
2023/03/09 03:37:55;;;;;;;5.47;2.55;;;12.00;96.70;;;;;;5040302;28;20060;-75
2023/03/09 03:40:25;;;;;;;5.50;2.85;;;12.00;96.70;;;;;;5054502;28;20041;-75
2023/03/09 03:42:55;;;;;;;4.80;2.60;;;12.00;96.70;;;;;;5054497;28;20135;-75
2023/03/09 03:45:25;;;;;;;6.68;2.83;;;12.10;96.70;;;;;;5055499;28;20653;-75
2023/03/09 03:47:53;;;;;;;6.45;2.65;;;12.00;96.70;;;;;;5053506;28;20044;-75
2023/03/09 03:50:21;;;;;;;7.65;3.22;;;12.00;96.70;;;;;;5050591;28;20159;-74
2023/03/09 03:52:56;;;;;;;6.07;2.50;;;12.10;96.70;;;;;;5053792;28;20048;-75
2023/03/09 03:55:24;;;;;;;5.10;2.60;;;12.10;96.70;;;;;;5040252;28;20636;-76
2023/03/09 03:57:52;;;;;;;5.05;2.28;;;12.10;96.70;;;;;;5063240;28;20032;-75
2023/03/09 04:00:22;;;;;;;6.32;2.70;;;12.00;96.70;;;;;;5056747;28;20527;-75
2023/03/09 04:02:54;;;;;;;7.22;2.38;;;12.00;96.70;;;;;;5031320;28;20563;-75
2023/03/09 04:05:31;;;;;;;6.03;2.35;;;12.00;96.70;;;;;;5053725;28;20445;-75
2023/03/09 04:07:59;;;;;;;4.43;2.00;;;12.00;96.70;;;;;;5056938;28;20045;-75
2023/03/09 04:10:28;;;;;;;4.40;2.10;;;12.10;96.70;;;;;;5054179;28;20056;-75
2023/03/09 04:12:57;;;;;;;5.43;2.10;;;12.00;96.70;;;;;;5060325;28;20072;-75
2023/03/09 04:15:25;;;;;;;8.77;2.38;;;12.00;96.70;;;;;;5039401;28;20076;-75
2023/03/09 04:17:55;;;;;;;4.50;2.17;;;12.00;96.70;;;;;;5061598;28;20079;-75
2023/03/09 04:20:23;;;;;;;8.00;2.53;;;12.00;96.70;;;;;;5058617;28;20057;-75
2023/03/09 04:22:52;;;;;;;6.90;2.15;;;12.00;96.70;;;;;;5057642;28;20140;-75
2023/03/09 04:25:23;;;;;;;4.20;2.00;;;12.00;96.70;;;;;;5043600;28;20728;-75
2023/03/09 04:27:51;;;;;;;4.68;2.10;;;11.90;96.70;;;;;;5057994;28;20454;-75
2023/03/09 04:30:27;;;;;;;7.53;2.28;;;12.00;96.70;;;;;;5063292;28;20045;-75
2023/03/09 04:32:59;;;;;;;5.47;1.83;;;12.00;96.70;;;;;;5039551;28;20135;-75
2023/03/09 04:35:28;;;;;;;5.93;2.20;;;12.00;96.70;;;;;;5055171;28;20091;-75
2023/03/09 04:37:58;;;;;;;5.20;1.67;;;12.00;96.70;;;;;;5057579;28;20040;-75
2023/03/09 04:40:27;;;;;;;5.45;2.17;;;12.10;96.70;;;;;;5045892;28;20064;-75
2023/03/09 04:42:57;;;;;;;4.97;1.83;;;12.10;96.70;;;;;;5056543;28;20037;-76
2023/03/09 04:45:25;;;;;;;7.82;2.17;;;12.10;96.70;;;;;;5078346;28;20056;-75
2023/03/09 04:47:55;;;;;;;5.50;2.10;;;12.10;96.70;;;;;;5064282;28;20140;-75
2023/03/09 04:50:25;;;;;;;6.18;2.50;;;12.10;96.70;;;;;;5046306;28;20273;-74
2023/03/09 04:52:57;;;;;;;5.57;2.55;;;12.10;96.70;;;;;;5055148;28;20048;-75
2023/03/09 04:55:27;;;;;;;6.65;3.05;;;12.00;96.70;;;;;;5057901;28;20355;-74
2023/03/09 04:57:57;;;;;;;8.15;3.22;;;12.00;96.70;;;;;;5055366;28;20094;-75
2023/03/09 05:00:25;;;;;;;7.13;2.85;;;12.00;96.70;;;;;;5045456;28;20052;-75
2023/03/09 05:02:53;;;;;;;7.60;2.60;;;12.00;96.70;;;;;;5061025;28;20036;-75
2023/03/09 05:05:24;;;;;;;8.35;3.33;;;12.00;96.70;;;;;;5060430;28;20048;-75
2023/03/09 05:07:54;;;;;;;6.10;2.60;;;12.00;96.70;;;;;;5060276;28;20037;-75
2023/03/09 05:10:23;;;;;;;6.30;2.95;;;12.00;96.70;;;;;;5059258;28;20144;-75
2023/03/09 05:12:55;;;;;;;9.50;3.83;;;12.10;96.70;;;;;;5059259;28;20549;-75
2023/03/09 05:15:26;;;;;;;7.78;3.50;;;12.10;96.70;;;;;;5058410;28;20072;-75
2023/03/09 05:17:55;;;;;;;9.18;3.88;;;12.10;96.70;;;;;;5059890;28;20058;-74
2023/03/09 05:20:26;;;;;;;8.25;3.60;;;12.10;96.70;;;;;;5060003;28;20036;-75
2023/03/09 05:23:04;;;;;;;10.27;3.72;;;12.10;96.70;;;;;;5058413;28;20489;-76
2023/03/09 05:25:33;;;;;;;5.88;3.08;;;12.10;96.70;;;;;;5059618;28;20048;-76
2023/03/09 05:28:04;;;;;;;9.38;3.60;;;12.10;96.70;;;;;;5060179;28;20048;-75
2023/03/09 05:30:46;;;;;;;7.35;3.22;;;12.10;96.70;;;;;;5002756;28;20049;-76
2023/03/09 05:33:14;;;;;;;6.78;3.42;;;12.10;96.70;;;;;;5014637;28;20555;-75
2023/03/09 05:35:43;;;;;;;9.38;4.10;;;12.10;96.70;;;;;;5004946;28;20555;-75
2023/03/09 05:38:13;;;;;;;8.75;3.33;;;12.10;96.70;;;;;;5015844;28;20038;-75
2023/03/09 05:40:41;;;;;;;8.95;3.95;;;12.10;96.70;;;;;;5003795;28;20050;-76
2023/03/09 05:43:23;;;;;;;6.75;3.03;;;12.10;96.70;;;;;;5000930;28;20049;-75
2023/03/09 05:45:55;;;;;;;7.07;3.03;;;12.10;96.70;;;;;;4999934;28;20049;-75
2023/03/09 05:48:24;;;;;;;5.10;2.85;;;12.10;96.70;;;;;;4991179;28;20072;-75
2023/03/09 05:50:53;;;;;;;5.22;3.00;;;12.10;96.70;;;;;;5002006;28;20557;-76
2023/03/09 05:53:22;;;;;;;5.90;3.40;;;12.10;96.70;;;;;;5018433;28;20053;-75
2023/03/09 05:55:52;;;;;;;8.95;3.42;;;12.10;96.70;;;;;;4984898;28;20169;-75
2023/03/09 05:58:22;;;;;;;7.10;3.78;;;12.10;96.70;;;;;;5002672;28;20063;-75
2023/03/09 06:00:52;;;;;;;8.68;4.07;;;12.10;96.70;;;;;;5007930;28;20056;-75
2023/03/09 06:03:20;;;;;;;8.77;4.88;;;12.10;96.70;;;;;;5062153;28;20040;-75
2023/03/09 06:06:01;;;;;;;10.77;4.95;;;12.10;96.70;;;;;;5058546;28;20074;-75
2023/03/09 06:08:32;;;;;;;10.18;4.82;;;12.10;96.70;;;;;;5057934;28;20056;-75
2023/03/09 06:11:07;;;;;;;10.63;5.53;;;12.10;96.70;;;;;;5064679;28;20050;-74
2023/03/09 06:13:36;;;;;;;11.40;5.28;;;12.10;96.70;;;;;;5061620;28;20036;-74
2023/03/09 06:16:06;;;;;;;9.93;5.53;;;12.10;96.70;;;;;;5055109;28;20501;-75
2023/03/09 06:18:34;;;;;;;11.32;5.65;;;12.10;96.70;;;;;;5060285;28;20075;-75
2023/03/09 06:21:06;;;;;;;9.45;6.28;;;12.10;96.70;;;;;;5056692;28;20041;-75
2023/03/09 06:23:36;;;;;;;10.30;6.57;;;12.20;96.70;;;;;;5059864;28;20907;-75
2023/03/09 06:26:09;;;;;;;7.32;4.32;;;12.20;96.70;;;;;;5069467;28;20493;-76
2023/03/09 06:28:40;;;;;;;7.30;3.88;;;12.10;96.70;;;;;;5064696;28;20575;-75
2023/03/09 06:31:11;;;;;;;8.07;3.63;;;12.10;96.70;;;;;;5056130;28;20049;-75
2023/03/09 06:33:44;;;;;;;7.03;3.58;;;12.10;96.70;;;;;;5051979;28;20566;-75
2023/03/09 06:36:15;;;;;;;6.97;3.10;;;12.10;96.70;;;;;;5082023;28;20052;-75
2023/03/09 06:38:45;;;;;;;8.45;2.78;;;12.10;96.70;;;;;;5070218;28;20059;-76
2023/03/09 06:41:15;;;;;;;6.03;2.53;;;12.10;96.70;;;;;;5065998;28;20051;-76
2023/03/09 06:43:47;;;;;;;6.15;2.90;;;12.20;96.70;;;;;;5062407;28;20056;-76
2023/03/09 06:46:16;;;;;;;6.93;2.85;;;12.20;96.70;;;;;;5063587;28;20580;-76
2023/03/09 06:48:44;;;;;;;6.47;3.00;;;12.20;96.70;;;;;;5067160;28;20044;-75
2023/03/09 06:51:14;;;;;;;6.32;2.70;;;12.20;96.70;;;;;;5061747;28;20135;-76
2023/03/09 06:53:42;;;;;;;6.72;2.80;;;12.20;96.70;;;;;;5069180;28;20079;-76
2023/03/09 06:56:13;;;;;;;5.10;3.28;;;12.30;96.70;;;;;;5059476;28;20399;-75
2023/03/09 06:58:41;;;;;;;6.25;2.95;;;12.30;96.70;;;;;;5078396;28;20323;-75
2023/03/09 07:01:11;;;;;;;5.72;2.80;;;12.40;96.70;;;;;;5069804;28;20035;-78
2023/03/09 07:03:41;;;;;;;7.53;3.17;;;12.40;96.70;;;;;;5061960;28;20509;-79
2023/03/09 07:06:11;;;;;;;6.63;3.20;;;12.40;96.70;;;;;;5068174;28;20044;-77
2023/03/09 07:08:41;;;;;;;10.18;3.53;;;12.50;96.70;;;;;;5059787;28;20048;-75
2023/03/09 07:11:09;;;;;;;8.30;3.53;;;12.60;96.70;;;;;;5071078;28;20054;-78
2023/03/09 07:13:38;;;;;;;8.43;2.80;;;12.70;96.70;;;;;;5061032;28;20052;-75
2023/03/09 07:16:07;;;;;;;7.63;3.25;;;12.70;96.70;;;;;;5060416;28;20094;-77
2023/03/09 07:18:41;;;;;;;10.30;2.90;;;12.80;96.70;;;;;;5073789;28;20542;-76
2023/03/09 07:21:09;;;;;;;6.40;3.15;;;12.80;96.70;;;;;;5073238;28;20639;-77
2023/03/09 07:23:37;;;;;;;5.28;3.42;;;12.80;96.70;;;;;;5081461;28;20036;-76
2023/03/09 07:26:07;;;;;;;6.85;3.50;;;12.80;96.70;;;;;;5073482;28;20181;-77
2023/03/09 07:28:35;;;;;;;8.75;3.08;;;12.90;96.70;;;;;;5081490;28;20044;-77
2023/03/09 07:31:08;;;;;;;8.15;3.42;;;12.90;96.70;;;;;;5071052;28;20051;-76
2023/03/09 07:33:36;;;;;;;6.57;3.20;;;13.00;96.70;;;;;;5055779;28;20071;-77
2023/03/09 07:36:09;;;;;;;5.38;3.30;;;13.10;96.70;;;;;;5062544;28;20032;-77
2023/03/09 07:38:37;;;;;;;7.18;3.17;;;13.10;96.70;;;;;;5054201;28;20612;-77
2023/03/09 07:41:07;;;;;;;7.93;3.05;;;13.20;96.70;;;;;;5053286;28;20037;-78
2023/03/09 07:43:43;;;;;;;8.10;3.60;;;13.20;96.70;;;;;;5061877;28;20764;-76
2023/03/09 07:46:24;;;;;;;7.25;3.60;;;13.20;96.70;;;;;;5069091;28;20044;-76
2023/03/09 07:48:53;;;;;;;7.03;3.60;;;13.30;96.70;;;;;;5066218;28;20101;-78
2023/03/09 07:51:23;;;;;;;11.93;4.78;;;13.40;96.70;;;;;;5074773;28;20047;-76
2023/03/09 07:53:51;;;;;;;11.27;4.82;;;13.40;96.70;;;;;;5067919;28;20128;-76
2023/03/09 07:56:20;;;;;;;7.93;3.90;;;13.50;96.70;;;;;;5061590;28;20063;-77
2023/03/09 07:58:52;;;;;;;10.32;3.45;;;13.50;96.70;;;;;;5071322;28;20044;-76
2023/03/09 08:01:20;;;;;;;9.35;3.88;;;13.50;96.70;;;;;;5060345;28;20144;-77
2023/03/09 08:03:48;;;;;;;5.75;3.10;;;13.60;96.70;;;;;;5071734;28;20037;-74
2023/03/09 08:06:17;;;;;;;9.48;4.05;;;13.60;96.70;;;;;;5068227;28;20066;-76
2023/03/09 08:08:46;;;;;;;11.98;3.95;;;13.60;96.70;;;;;;5060222;28;20042;-75
2023/03/09 08:11:15;;;;;;;11.32;3.90;;;13.70;96.70;;;;;;5079470;28;20505;-73
2023/03/09 08:13:45;;;;;;;9.82;3.67;;;13.80;96.70;;;;;;5063328;28;20055;-74
2023/03/09 08:16:13;;;;;;;10.48;4.40;;;13.90;96.70;;;;;;5081611;28;20121;-74
2023/03/09 08:18:42;;;;;;;10.18;4.38;;;14.00;96.70;;;;;;5073410;28;20036;-74
2023/03/09 08:21:13;;;;;;;14.07;4.45;;;14.00;96.70;;;;;;5080775;28;20048;-74
2023/03/09 08:23:43;;;;;;;7.47;3.60;;;14.10;96.70;;;;;;5071089;28;20394;-74
2023/03/09 08:26:13;;;;;;;9.63;3.65;;;14.10;96.70;;;;;;5063894;28;20143;-73
2023/03/09 08:28:44;;;;;;;11.05;4.03;;;14.20;96.70;;;;;;5080373;28;20579;-76
2023/03/09 08:31:16;;;;;;;8.02;3.67;;;14.30;96.70;;;;;;5075050;28;20047;-76
2023/03/09 08:33:45;;;;;;;8.57;4.15;;;14.30;96.70;;;;;;5071961;28;20050;-77
2023/03/09 08:36:15;;;;;;;9.27;4.47;;;14.40;96.70;;;;;;5077968;28;20036;-76
2023/03/09 08:38:45;;;;;;;11.55;4.32;;;14.40;96.70;;;;;;5069444;28;20418;-76
2023/03/09 08:41:14;;;;;;;9.38;3.70;;;14.50;96.70;;;;;;5075385;28;20092;-76
2023/03/09 08:43:44;;;;;;;8.50;3.58;;;14.60;96.70;;;;;;5080540;28;20040;-76
2023/03/09 08:46:12;;;;;;;13.15;3.38;;;14.60;96.70;;;;;;5080121;28;20052;-77
2023/03/09 08:48:41;;;;;;;8.98;3.55;;;14.60;96.70;;;;;;5070661;28;20046;-76
2023/03/09 08:51:10;;;;;;;11.15;3.13;;;14.60;96.70;;;;;;5079548;28;20056;-77
2023/03/09 08:53:38;;;;;;;11.50;3.05;;;14.70;96.70;;;;;;5070932;28;20127;-76
2023/03/09 08:56:09;;;;;;;10.82;2.78;;;14.70;96.70;;;;;;5072540;28;20044;-77
2023/03/09 08:58:37;;;;;;;10.02;2.63;;;14.80;96.70;;;;;;5078788;28;20567;-76
2023/03/09 09:01:09;;;;;;;7.03;2.42;;;14.80;96.70;;;;;;5079342;28;20036;-78
2023/03/09 09:03:38;;;;;;;8.18;2.67;;;14.90;96.70;;;;;;5070940;28;20059;-76
2023/03/09 09:06:08;;;;;;;10.43;3.20;;;15.00;96.70;;;;;;5081903;28;20447;-76
2023/03/09 09:08:37;;;;;;;6.38;2.50;;;15.10;96.70;;;;;;5048530;28;20807;-74
2023/03/09 09:11:07;;;;;;;9.57;2.63;;;15.20;96.70;;;;;;5080158;28;20059;-75
2023/03/09 09:13:36;;;;;;;8.63;3.13;;;15.30;96.70;;;;;;5069626;28;20084;-75
2023/03/09 09:16:10;;;;;;;6.80;2.42;;;15.40;96.70;;;;;;5069478;28;20044;-74
2023/03/09 09:18:38;;;;;;;10.02;2.63;;;15.40;96.70;;;;;;5085344;28;20136;-75
2023/03/09 09:21:12;;;;;;;10.98;3.10;;;15.40;96.70;;;;;;5067098;28;20052;-74
2023/03/09 09:23:43;;;;;;;9.38;3.40;;;15.60;96.70;;;;;;5084543;28;20072;-74
2023/03/09 09:26:11;;;;;;;9.32;2.60;;;15.70;96.70;;;;;;5076196;28;20059;-75
2023/03/09 09:28:40;;;;;;;9.68;2.60;;;15.80;96.70;;;;;;5083550;28;20055;-76
2023/03/09 09:31:12;;;;;;;10.15;3.30;;;16.10;96.70;;;;;;5083216;28;20047;-74
2023/03/09 09:33:41;;;;;;;9.75;3.40;;;16.20;96.70;;;;;;5080251;28;20047;-76
2023/03/09 09:36:12;;;;;;;6.35;2.70;;;16.40;96.70;;;;;;5083138;28;20032;-75
2023/03/09 09:38:42;;;;;;;10.52;3.30;;;16.50;96.70;;;;;;5066765;28;20081;-76
2023/03/09 09:41:17;;;;;;;14.60;3.63;;;16.50;96.70;;;;;;5076630;28;20051;-74
2023/03/09 09:43:48;;;;;;;15.63;3.53;;;16.60;96.70;;;;;;5083385;28;20040;-75
2023/03/09 09:46:19;;;;;;;8.05;3.22;;;16.80;96.70;;;;;;5069254;28;20135;-75
2023/03/09 09:49:03;;;;;;;11.85;3.88;;;17.00;96.70;;;;;;5067589;28;20076;-75
2023/03/09 09:52:23;;;;;;;13.75;3.92;;;17.00;96.70;;;;;;5068191;28;20051;-75
2023/03/09 09:54:56;;;;;;;9.45;3.20;;;17.00;96.70;;;;;;5044019;28;20058;-75
2023/03/09 09:57:39;;;;;;;11.10;3.75;;;17.00;96.70;;;;;;5075509;28;20620;-75
2023/03/09 10:00:12;;;;;;;13.48;3.75;;;17.00;96.70;;;;;;5063434;28;20057;-75
2023/03/09 10:03:04;;;;;;;16.85;4.40;;;16.90;96.70;;;;;;5079752;28;20074;-75
2023/03/09 10:05:40;;;;;;;11.63;3.72;;;16.90;96.70;;;;;;5080962;28;20052;-75
2023/03/09 10:08:48;;;;;;;11.85;3.60;;;16.80;96.70;;;;;;5068802;28;20085;-75
2023/03/09 10:11:23;;;;;;;14.15;4.22;;;16.90;96.70;;;;;;5056481;28;20077;-75
2023/03/09 10:13:54;;;;;;;15.05;3.38;;;17.30;96.70;;;;;;5059708;28;20499;-76
2023/03/09 10:16:26;;;;;;;11.93;3.92;;;17.60;96.70;;;;;;5083669;28;20078;-75
2023/03/09 10:18:59;;;;;;;13.25;4.43;;;17.80;96.70;;;;;;5082497;28;20113;-77
2023/03/09 10:21:35;;;;;;;10.02;4.93;;;17.90;96.70;;;;;;5084215;28;20059;-75
2023/03/09 10:24:18;;;;;;;9.40;3.83;;;18.10;96.70;;;;;;5083451;28;20058;-75
2023/03/09 10:26:55;;;;;;;13.40;3.92;;;18.10;96.70;;;;;;5080820;28;20044;-73
2023/03/09 10:29:31;;;;;;;16.05;4.38;;;18.20;96.70;;;;;;5082652;28;20168;-72
2023/03/09 10:32:05;;;;;;;10.30;4.13;;;18.30;96.70;;;;;;5082313;28;20519;-73
2023/03/09 10:34:46;;;;;;;10.23;3.38;;;18.50;96.70;;;;;;5083774;28;20101;-73
2023/03/09 10:37:19;;;;;;;10.30;2.90;;;18.70;96.70;;;;;;5078891;28;20068;-73
2023/03/09 10:39:47;;;;;;;12.30;3.53;;;18.90;96.70;;;;;;5064794;28;20047;-74
2023/03/09 10:42:18;;;;;;;10.25;2.83;;;19.00;96.70;;;;;;5077954;28;20153;-73
2023/03/09 10:44:58;;;;;;;10.75;3.38;;;19.20;96.70;;;;;;5072497;28;20040;-73
2023/03/09 10:47:26;;;;;;;10.07;3.40;;;19.20;96.70;;;;;;5083761;28;20044;-74
2023/03/09 10:50:16;;;;;;;8.32;2.90;;;19.10;96.70;;;;;;5079151;28;20505;-74
2023/03/09 10:52:52;;;;;;;9.95;2.83;;;19.30;96.70;;;;;;5070811;28;20075;-73
2023/03/09 10:55:34;;;;;;;6.85;2.03;;;19.40;96.70;;;;;;5080473;28;20106;-73
2023/03/09 10:58:17;;;;;;;9.45;2.40;;;19.50;96.70;;;;;;5068037;28;20113;-76
2023/03/09 11:00:54;;;;;;;9.02;2.15;;;19.60;96.70;;;;;;5076535;28;20044;-75
2023/03/09 11:03:22;;;;;;;;;;;19.80;96.70;;;;;;5082115;28;20048;-73
2023/03/09 11:05:52;;;;;;;7.95;2.45;;;19.90;96.70;;;;;;5081488;28;19971;-73
2023/03/09 11:08:27;;;;;;;8.30;2.40;;;19.60;96.70;;;;;;5072393;28;20051;-74
2023/03/09 11:11:05;;;;;;;12.68;2.30;;;19.40;96.70;;;;;;5072008;28;20547;-74
2023/03/09 11:13:34;;;;;;;7.13;2.28;;;19.50;96.70;;;;;;5074333;28;20040;-73
2023/03/09 11:16:14;;;;;;;7.88;2.10;;;19.50;96.70;;;;;;5071433;28;20051;-73
2023/03/09 11:18:42;;;;;;;5.85;2.08;;;19.40;96.70;;;;;;5081360;28;20055;-73
2023/03/09 11:21:21;;;;;;;9.15;2.13;;;19.50;96.70;;;;;;5076325;28;20044;-75
2023/03/09 11:23:53;;;;;;;7.85;2.45;;;19.80;96.70;;;;;;5078309;28;20048;-75
2023/03/09 11:26:25;;;;;;;7.85;2.28;;;20.00;96.70;;;;;;5076602;28;20497;-75
2023/03/09 11:28:59;;;;;;;11.15;2.38;;;19.90;96.70;;;;;;5083044;28;20044;-76
2023/03/09 11:31:34;;;;;;;9.65;2.47;;;19.90;96.70;;;;;;5079223;28;20063;-75
2023/03/09 11:34:05;;;;;;;12.18;2.85;;;19.80;96.70;;;;;;5069476;28;20601;-74
2023/03/09 11:36:40;;;;;;;7.80;1.63;;;20.00;96.70;;;;;;5073626;28;20090;-74
2023/03/09 11:39:16;;;;;;;11.43;2.47;;;20.00;96.70;;;;;;5056783;28;20044;-74
2023/03/09 11:41:48;;;;;;;6.32;1.90;;;20.00;96.70;;;;;;5082432;28;20486;-74
2023/03/09 11:44:21;;;;;;;7.72;1.75;;;20.20;96.70;;;;;;5079873;28;20051;-73
2023/03/09 11:46:52;;;;;;;7.50;2.22;;;20.30;96.70;;;;;;5059482;28;20628;-74
2023/03/09 11:49:25;;;;;;;5.95;1.83;;;20.30;96.70;;;;;;5069976;28;20045;-73
2023/03/09 11:51:57;;;;;;;8.50;2.55;;;20.30;96.70;;;;;;5075787;28;20077;-74
2023/03/09 11:54:30;;;;;;;9.60;2.58;;;20.30;96.70;;;;;;5059646;28;20037;-77
2023/03/09 11:57:02;;;;;;;7.72;1.42;;;20.40;96.70;;;;;;5081163;28;20059;-76
2023/03/09 11:59:37;;;;;;;10.05;2.17;;;20.40;96.70;;;;;;5076215;28;20146;-73
2023/03/09 12:02:14;;;;;;;7.18;1.77;;;20.40;96.70;;;;;;5058087;28;20887;-73
2023/03/09 12:04:47;;;;;;;10.18;1.85;;;20.30;96.70;;;;;;5068121;28;20088;-71
2023/03/09 12:07:21;;;;;;;11.57;2.35;;;20.30;96.70;;;;;;5059505;28;20048;-75
2023/03/09 12:09:55;;;;;;;8.00;2.20;;;20.30;96.70;;;;;;5076839;28;20623;-74
2023/03/09 12:12:30;;;;;;;11.90;2.75;;;20.50;96.70;;;;;;5077667;28;20046;-74
2023/03/09 12:15:04;;;;;;;5.20;1.33;;;20.50;96.70;;;;;;5065435;28;20056;-74
2023/03/09 12:17:37;;;;;;;8.82;1.92;;;20.40;96.70;;;;;;5065298;28;20559;-75
2023/03/09 12:20:06;;;;;;;7.88;1.90;;;20.30;96.70;;;;;;5077007;28;20048;-75
2023/03/09 12:22:38;;;;;;;6.43;1.95;;;20.20;96.70;;;;;;5069328;28;20544;-74
2023/03/09 12:25:15;;;;;;;9.18;1.67;;;20.20;96.70;;;;;;5045022;28;20051;-74
2023/03/09 12:27:49;;;;;;;8.20;1.55;;;20.40;96.70;;;;;;5065970;28;20562;-74
2023/03/09 12:30:24;;;;;;;4.93;1.40;;;20.60;96.70;;;;;;5051940;28;20508;-74
2023/03/09 12:32:56;;;;;;;8.38;1.80;;;20.40;96.70;;;;;;5068854;28;20582;-74
2023/03/09 12:35:57;;;;;;;8.35;2.10;;;20.50;96.70;;;;;;5078491;28;20047;-74
2023/03/09 12:38:27;;;;;;;5.80;1.92;;;20.70;96.70;;;;;;5076742;28;20071;-74
2023/03/09 12:40:55;;;;;;;7.35;2.35;;;20.80;96.70;;;;;;5086127;28;20127;-74
2023/03/09 12:43:44;;;;;;;8.63;1.85;;;20.70;96.70;;;;;;5075160;28;20048;-74
2023/03/09 12:46:52;;;;;;;8.90;1.95;;;20.60;96.70;;;;;;5067020;28;20529;-75
2023/03/09 12:49:23;;;;;;;10.55;2.05;;;20.60;96.70;;;;;;5068208;28;20075;-74
2023/03/09 12:52:15;;;;;;;11.23;2.70;;;20.60;96.70;;;;;;5067400;28;20063;-75
2023/03/09 12:54:53;;;;;;;9.82;2.10;;;20.70;96.70;;;;;;5074582;28;20226;-75
2023/03/09 12:57:21;;;;;;;10.85;2.33;;;20.60;96.70;;;;;;5071209;28;20118;-75
2023/03/09 12:59:49;;;;;;;10.05;2.28;;;20.60;96.70;;;;;;5065600;28;20145;-75
2023/03/09 13:02:31;;;;;;;8.02;2.28;;;20.60;96.70;;;;;;5097685;28;20444;-73
2023/03/09 13:05:24;;;;;;;12.02;2.53;;;20.60;96.70;;;;;;5076334;28;20550;-74
2023/03/09 13:08:17;;;;;;;8.98;2.00;;;20.40;96.70;;;;;;5084444;28;20044;-74
2023/03/09 13:10:46;;;;;;;6.10;1.90;;;20.50;96.70;;;;;;5067042;28;21333;-74